Time;durP1;ratioP1;P1;durP2;ratioP2;P2;SDS_P1;SDS_P2;PMS_P1;PMS_P2;Temp;Humidity;BMP_temperature;BMP_pressure;BME280_temperature;BME280_humidity;BME280_pressure;Samples;Min_cycle;Max_cycle;Signal;HPM_P1;HPM_P2
2022/04/29 00:00:42;;;;;;;4.93;3.10;;;;;;;20.25;47.28;102032.69;4994485;28;20065;-73
2022/04/29 00:03:12;;;;;;;5.72;3.58;;;;;;;20.24;47.41;102037.22;4995261;28;20479;-73
2022/04/29 00:05:42;;;;;;;5.05;3.00;;;;;;;20.25;47.54;102038.06;4995128;28;20057;-72
2022/04/29 00:08:11;;;;;;;4.85;3.28;;;;;;;20.24;47.34;102039.91;4995917;28;20061;-73
2022/04/29 00:10:39;;;;;;;4.07;2.88;;;;;;;20.23;47.41;102040.88;4995218;28;20073;-74
2022/04/29 00:13:09;;;;;;;5.00;3.33;;;;;;;20.24;47.45;102039.91;4994223;28;20122;-73
2022/04/29 00:15:37;;;;;;;3.72;3.15;;;;;;;20.24;47.36;102039.03;4994242;28;20061;-74
2022/04/29 00:18:05;;;;;;;5.60;3.40;;;;;;;20.24;47.49;102047.09;4994310;28;20057;-74
2022/04/29 00:20:32;;;;;;;4.47;2.97;;;;;;;20.23;47.35;102040.88;4995201;28;20050;-74
2022/04/29 00:23:00;;;;;;;4.78;3.00;;;;;;;20.22;47.32;102039.16;4994758;28;20118;-73
2022/04/29 00:25:28;;;;;;;5.15;3.90;;;;;;;20.23;47.32;102034.63;4993693;28;20050;-73
2022/04/29 00:27:56;;;;;;;4.30;3.00;;;;;;;20.22;47.34;102038.31;4994860;28;20046;-73
2022/04/29 00:30:23;;;;;;;4.75;3.60;;;;;;;20.23;47.11;102048.09;4993743;28;20390;-73
2022/04/29 00:32:51;;;;;;;4.38;3.25;;;;;;;20.23;47.40;102040.88;4993513;28;20057;-73
2022/04/29 00:35:18;;;;;;;6.82;3.20;;;;;;;20.22;47.34;102044.53;4993593;28;20050;-73
2022/04/29 00:37:48;;;;;;;5.05;3.45;;;;;;;20.22;47.17;102039.16;4993536;28;20402;-73
2022/04/29 00:40:17;;;;;;;3.88;2.75;;;;;;;20.21;47.37;102042.78;4994538;28;20394;-73
2022/04/29 00:42:46;;;;;;;4.07;2.90;;;;;;;20.21;47.35;102041.94;4995427;28;20054;-73
2022/04/29 00:45:15;;;;;;;3.88;2.70;;;;;;;20.21;47.31;102041.94;4993276;28;20050;-73
2022/04/29 00:47:43;;;;;;;4.95;3.38;;;;;;;20.20;47.15;102037.53;4994877;28;20057;-73
2022/04/29 00:50:13;;;;;;;4.90;3.33;;;;;;;20.20;47.26;102042.91;4993582;28;20046;-73
2022/04/29 00:52:51;;;;;;;4.18;3.30;;;;;;;20.21;47.18;102036.56;4993240;28;20054;-73
2022/04/29 00:55:21;;;;;;;5.35;3.53;;;;;;;20.20;47.21;102045.59;4994853;28;20050;-73
2022/04/29 00:58:11;;;;;;;3.70;3.38;;;;;;;20.19;47.21;102035.81;4994504;28;20042;-74
2022/04/29 01:00:39;;;;;;;6.00;3.33;;;;;;;20.19;47.25;102034.00;4994734;28;20042;-74
2022/04/29 01:03:11;;;;;;;3.67;2.70;;;;;;;20.18;47.05;102043.03;4994271;28;20046;-74
2022/04/29 01:05:39;;;;;;;5.25;3.20;;;;;;;20.18;47.25;102034.97;4995582;28;20390;-74
2022/04/29 01:08:08;;;;;;;4.03;2.90;;;;;;;20.19;46.93;102035.81;4993063;28;20386;-73
2022/04/29 01:10:35;;;;;;;3.50;2.78;;;;;;;20.18;46.97;102037.66;4977020;28;20051;-73
2022/04/29 01:13:04;;;;;;;6.78;3.35;;;;;;;20.18;47.06;102034.97;4992955;28;20050;-73
2022/04/29 01:15:31;;;;;;;4.25;3.33;;;;;;;20.18;47.30;102037.66;4993984;28;20050;-73
2022/04/29 01:18:05;;;;;;;3.63;2.58;;;;;;;20.18;47.28;102034.97;4992221;28;20418;-73
2022/04/29 01:20:33;;;;;;;3.95;3.03;;;;;;;20.16;47.12;102028.81;4993001;28;20054;-74
2022/04/29 01:23:08;;;;;;;6.13;3.13;;;;;;;20.17;47.12;102027.00;4993901;28;20055;-74
2022/04/29 01:25:37;;;;;;;4.43;3.10;;;;;;;20.16;47.25;102026.13;4992862;28;20054;-73
2022/04/29 01:28:04;;;;;;;4.35;3.10;;;;;;;20.16;47.21;102027.97;4992579;28;20165;-74
2022/04/29 01:30:34;;;;;;;6.65;3.22;;;;;;;20.16;47.37;102033.34;4992819;28;20093;-74
2022/04/29 01:33:02;;;;;;;4.45;3.08;;;;;;;20.15;47.11;102023.56;4992967;28;20537;-73
2022/04/29 01:35:29;;;;;;;4.07;3.10;;;;;;;20.15;47.37;102032.50;4992702;28;20050;-73
2022/04/29 01:37:58;;;;;;;4.05;3.20;;;;;;;20.15;47.32;102021.72;4992827;28;20050;-73
2022/04/29 01:40:25;;;;;;;4.63;3.03;;;;;;;20.15;47.37;102018.19;4992614;28;20061;-73
2022/04/29 01:42:53;;;;;;;4.32;2.90;;;;;;;20.14;47.28;102020.03;4992584;28;20057;-74
2022/04/29 01:45:20;;;;;;;4.35;3.50;;;;;;;20.13;47.19;102014.72;4992501;28;20058;-74
2022/04/29 01:48:11;;;;;;;3.65;2.83;;;;;;;20.13;47.29;102012.91;4993630;28;20046;-74
2022/04/29 01:50:57;;;;;;;5.22;3.20;;;;;;;20.13;47.38;102002.16;5000456;28;20081;-73
2022/04/29 01:53:24;;;;;;;4.57;3.00;;;;;;;20.14;47.31;102003.03;4992536;28;20058;-73
2022/04/29 01:55:52;;;;;;;3.95;2.58;;;;;;;20.12;47.22;102000.44;4992462;28;20046;-73
2022/04/29 01:58:19;;;;;;;3.45;3.10;;;;;;;20.12;47.43;101997.75;4992508;28;20054;-73
2022/04/29 02:00:46;;;;;;;3.47;2.55;;;;;;;20.13;47.19;102001.28;4992959;28;20399;-73
2022/04/29 02:03:14;;;;;;;3.58;2.72;;;;;;;20.12;47.30;102005.81;4992685;28;20057;-73
2022/04/29 02:05:42;;;;;;;4.35;2.97;;;;;;;20.11;47.39;102006.78;4992649;28;20053;-73
2022/04/29 02:08:09;;;;;;;4.28;2.80;;;;;;;20.11;47.24;102001.41;4992509;28;20061;-73
2022/04/29 02:10:39;;;;;;;4.82;3.60;;;;;;;20.11;47.39;101987.13;4992426;28;20057;-73
2022/04/29 02:13:09;;;;;;;4.53;3.00;;;;;;;20.12;47.33;101989.69;4992517;28;20062;-73
2022/04/29 02:15:46;;;;;;;4.70;2.60;;;;;;;20.11;47.16;101987.97;4992449;28;20494;-73
2022/04/29 02:18:16;;;;;;;3.22;2.25;;;;;;;20.11;47.26;101985.28;4992975;28;20382;-73
2022/04/29 02:20:43;;;;;;;4.80;3.13;;;;;;;20.11;47.35;101979.03;4992328;28;20099;-73
2022/04/29 02:23:11;;;;;;;3.47;2.55;;;;;;;20.10;47.22;101986.25;4992294;28;20058;-73
2022/04/29 02:25:38;;;;;;;5.57;3.10;;;;;;;20.09;47.21;101984.50;4992632;28;20050;-74
2022/04/29 02:28:06;;;;;;;4.45;3.10;;;;;;;20.09;47.26;101983.66;4992153;28;20057;-73
2022/04/29 02:30:33;;;;;;;4.22;2.85;;;;;;;20.10;47.07;101990.78;4996307;28;20050;-73
2022/04/29 02:33:01;;;;;;;5.15;3.08;;;;;;;20.08;47.20;101993.56;4995945;28;20055;-73
2022/04/29 02:35:30;;;;;;;3.60;2.70;;;;;;;20.08;47.31;101982.81;4996987;28;20046;-73
2022/04/29 02:37:57;;;;;;;3.85;2.95;;;;;;;20.08;47.34;101981.94;4995861;28;20050;-73
2022/04/29 02:40:25;;;;;;;3.35;2.53;;;;;;;20.07;47.15;101977.53;4995792;28;20498;-74
2022/04/29 02:42:52;;;;;;;4.18;2.97;;;;;;;20.07;47.29;101983.78;4996079;28;20058;-73
2022/04/29 02:45:20;;;;;;;3.42;2.85;;;;;;;20.07;47.28;101981.09;4995667;28;20062;-73
2022/04/29 02:47:49;;;;;;;3.20;2.45;;;;;;;20.07;47.07;101972.16;4995791;28;20058;-73
2022/04/29 02:50:17;;;;;;;3.90;2.58;;;;;;;20.06;47.35;101976.69;4995518;28;20054;-73
2022/04/29 02:52:59;;;;;;;3.38;2.83;;;;;;;20.07;47.28;101969.47;4995700;28;20046;-73
2022/04/29 02:55:27;;;;;;;3.53;2.80;;;;;;;20.08;47.10;101976.56;4995490;28;20058;-73
2022/04/29 02:58:07;;;;;;;4.18;2.42;;;;;;;20.06;47.17;101968.63;4995968;28;20050;-73
2022/04/29 03:00:35;;;;;;;5.70;3.30;;;;;;;20.07;47.19;101966.78;4995667;28;20414;-73
2022/04/29 03:03:02;;;;;;;5.07;2.83;;;;;;;20.07;47.08;101964.09;4995403;28;20050;-73
2022/04/29 03:05:30;;;;;;;5.07;2.70;;;;;;;20.06;47.18;101971.31;4995251;28;20410;-73
2022/04/29 03:07:57;;;;;;;4.63;2.42;;;;;;;20.06;47.05;101963.25;4995165;28;20055;-73
2022/04/29 03:10:25;;;;;;;3.38;2.58;;;;;;;20.06;47.07;101970.47;4995424;28;20517;-73
2022/04/29 03:12:53;;;;;;;3.88;2.70;;;;;;;20.06;47.11;101965.94;4996055;28;20061;-73
2022/04/29 03:15:29;;;;;;;3.95;2.78;;;;;;;20.06;47.02;101968.63;4995243;28;20058;-74
2022/04/29 03:20:46;;;;;;;3.85;2.50;;;;;;;20.06;47.20;101965.09;4995292;28;20054;-73
2022/04/29 03:23:15;;;;;;;3.95;2.53;;;;;;;20.05;47.10;101964.19;4995114;28;20070;-74
2022/04/29 03:25:55;;;;;;;3.50;2.33;;;;;;;20.04;47.28;101967.84;4996859;28;20391;-73
2022/04/29 03:28:25;;;;;;;4.07;2.90;;;;;;;20.05;47.08;101966.03;4994779;28;20057;-73
2022/04/29 03:30:53;;;;;;;3.90;2.70;;;;;;;20.03;46.82;101963.47;4995016;28;20061;-73
2022/04/29 03:33:24;;;;;;;3.35;2.30;;;;;;;20.05;47.32;101972.25;4994789;28;20055;-73
2022/04/29 03:35:52;;;;;;;3.00;2.53;;;;;;;20.03;47.01;101962.59;4994950;28;20058;-73
2022/04/29 03:38:26;;;;;;;5.05;2.65;;;;;;;20.03;47.28;101974.22;4994733;28;20050;-73
2022/04/29 03:40:54;;;;;;;3.70;2.72;;;;;;;20.02;46.97;101972.50;4994031;28;20065;-73
2022/04/29 03:43:24;;;;;;;2.83;2.40;;;;;;;20.03;47.01;101984.97;4995053;28;20406;-73
2022/04/29 03:45:52;;;;;;;3.42;2.72;;;;;;;20.02;47.12;101979.72;4994228;28;20055;-73
2022/04/29 03:51:49;;;;;;;4.38;2.25;;;;;;;20.02;47.13;101979.72;4995319;28;20410;-73
2022/04/29 03:54:18;;;;;;;4.18;2.58;;;;;;;20.02;47.26;101975.19;4994645;28;20050;-73
2022/04/29 03:56:55;;;;;;;4.45;2.97;;;;;;;20.02;47.19;101977.03;4994741;28;20065;-74
2022/04/29 03:59:23;;;;;;;5.63;2.22;;;;;;;20.02;47.10;101982.41;4995160;28;20054;-74
2022/04/29 04:01:51;;;;;;;4.25;2.30;;;;;;;20.01;47.26;101984.19;4994123;28;20058;-73
2022/04/29 04:04:19;;;;;;;2.97;2.60;;;;;;;20.02;47.13;101994.00;4994757;28;20130;-73
2022/04/29 04:06:50;;;;;;;4.00;2.88;;;;;;;20.02;47.43;101994.00;4994462;28;20054;-73
2022/04/29 04:09:46;;;;;;;4.18;2.50;;;;;;;20.01;47.41;101984.19;5013228;28;20049;-73
2022/04/29 04:12:14;;;;;;;5.38;2.70;;;;;;;20.01;47.29;101992.25;5012580;28;20157;-73
2022/04/29 04:15:05;;;;;;;3.65;2.70;;;;;;;20.00;47.26;101996.78;5013220;28;20099;-73
2022/04/29 04:17:40;;;;;;;5.30;2.60;;;;;;;20.01;47.07;101994.94;5012291;28;20045;-73
2022/04/29 04:20:09;;;;;;;3.53;2.58;;;;;;;20.01;47.02;101997.63;5012100;28;20046;-73
2022/04/29 04:22:49;;;;;;;4.28;2.63;;;;;;;20.00;47.14;102006.69;5012533;28;20053;-73
2022/04/29 04:25:17;;;;;;;4.63;2.65;;;;;;;19.99;46.94;102002.28;5011743;28;20049;-74
2022/04/29 04:27:44;;;;;;;4.03;2.75;;;;;;;20.00;47.08;102004.00;5012229;28;20169;-74
2022/04/29 04:30:12;;;;;;;3.58;2.67;;;;;;;20.00;47.02;102006.69;5012193;28;20580;-74
2022/04/29 04:32:40;;;;;;;3.20;2.33;;;;;;;19.99;47.05;102004.97;5011837;28;20049;-74
2022/04/29 04:35:08;;;;;;;3.70;2.70;;;;;;;19.98;46.92;102003.25;5011771;28;20427;-74
2022/04/29 04:37:35;;;;;;;5.32;2.58;;;;;;;19.98;47.11;102006.78;4996037;28;20054;-74
2022/04/29 04:40:06;;;;;;;5.20;2.75;;;;;;;19.98;47.01;102009.47;5012019;28;20053;-73
2022/04/29 04:42:53;;;;;;;3.80;2.40;;;;;;;19.97;47.08;102002.41;5012026;28;20057;-73
2022/04/29 04:45:32;;;;;;;3.65;2.33;;;;;;;19.98;46.98;102005.94;5008610;28;20053;-74
2022/04/29 04:48:39;;;;;;;5.35;2.70;;;;;;;19.97;46.91;102013.16;5012329;28;20045;-74
2022/04/29 04:51:06;;;;;;;4.32;2.65;;;;;;;19.97;47.05;102018.53;5012068;28;20057;-74
2022/04/29 04:53:37;;;;;;;4.22;2.35;;;;;;;19.97;46.89;102017.63;5011238;28;20062;-73
2022/04/29 04:56:05;;;;;;;3.42;2.95;;;;;;;19.97;46.87;102023.00;5011076;28;20054;-74
2022/04/29 04:58:34;;;;;;;3.05;2.08;;;;;;;19.97;46.95;102023.91;4995568;28;20050;-73
2022/04/29 05:01:02;;;;;;;4.00;2.78;;;;;;;19.96;46.83;102022.16;5011131;28;20054;-73
2022/04/29 05:03:50;;;;;;;2.90;2.53;;;;;;;19.96;46.73;102021.28;4973153;28;20059;-73
2022/04/29 05:06:37;;;;;;;3.20;2.22;;;;;;;19.96;47.01;102030.22;4934370;29;20067;-73
2022/04/29 05:09:05;;;;;;;4.57;2.28;;;;;;;19.96;46.86;102032.91;4934281;29;20055;-73
2022/04/29 05:11:35;;;;;;;3.30;2.47;;;;;;;19.95;46.68;102028.50;4917911;29;20063;-73
2022/04/29 05:14:41;;;;;;;3.75;2.15;;;;;;;19.95;46.75;102031.19;4917627;29;20082;-72
2022/04/29 05:17:08;;;;;;;5.55;2.80;;;;;;;19.95;46.82;102028.50;4918631;29;20051;-72
2022/04/29 05:19:41;;;;;;;;;;;;;;;19.95;46.98;102027.66;4894979;29;20057;-72
2022/04/29 05:22:13;;;;;;;3.42;2.45;;;;;;;19.94;46.80;102031.31;4859428;29;20026;-72
2022/04/29 05:24:41;;;;;;;3.50;2.55;;;;;;;19.94;46.85;102037.53;4859218;29;20068;-73
2022/04/29 05:27:27;;;;;;;3.78;2.33;;;;;;;19.94;46.98;102037.53;4863006;29;20457;-73
2022/04/29 05:30:13;;;;;;;5.25;2.75;;;;;;;19.95;46.76;102035.72;4863797;29;20061;-74
2022/04/29 05:33:04;;;;;;;3.28;2.67;;;;;;;19.94;46.88;102042.91;4869041;29;20065;-74
2022/04/29 05:35:50;;;;;;;2.72;2.22;;;;;;;19.95;46.67;102041.09;4865739;29;20146;-73
2022/04/29 05:44:11;;;;;;;2.95;2.25;;;;;;;19.94;46.87;102047.44;4984141;28;20526;-74
2022/04/29 05:46:38;;;;;;;5.07;2.72;;;;;;;19.93;46.93;102045.69;4991527;28;20593;-74
2022/04/29 05:49:06;;;;;;;4.07;2.50;;;;;;;19.92;46.87;102052.91;4992386;28;20411;-73
2022/04/29 05:51:39;;;;;;;;;;;;;;;19.93;46.89;102043.88;4975564;28;20047;-73
2022/04/29 05:54:06;;;;;;;3.40;2.28;;;;;;;19.92;46.75;102052.91;4992079;28;19929;-73
2022/04/29 05:56:34;;;;;;;3.28;2.72;;;;;;;19.92;46.86;102047.53;4975094;28;20560;-74
2022/04/29 05:59:05;;;;;;;5.40;2.53;;;;;;;19.92;46.87;102055.59;4990997;28;20533;-73
2022/04/29 06:01:59;;;;;;;2.78;2.17;;;;;;;19.92;46.88;102052.03;4990512;28;20609;-73
2022/04/29 06:04:42;;;;;;;4.22;2.55;;;;;;;19.92;46.93;102049.34;4978140;28;20062;-73
2022/04/29 06:07:10;;;;;;;3.75;2.75;;;;;;;19.92;46.98;102060.97;4978724;28;20057;-73
2022/04/29 06:09:39;;;;;;;3.47;2.92;;;;;;;19.92;46.94;102055.59;4979120;28;20047;-73
2022/04/29 06:12:08;;;;;;;3.72;2.42;;;;;;;19.92;46.80;102060.09;4995217;28;20050;-73
2022/04/29 06:14:36;;;;;;;3.25;2.50;;;;;;;19.93;46.88;102056.44;4962921;28;20061;-73
2022/04/29 06:17:23;;;;;;;4.95;3.00;;;;;;;19.92;47.04;102062.78;4937438;29;20671;-73
2022/04/29 06:20:10;;;;;;;3.78;2.45;;;;;;;19.92;46.94;102058.28;4938263;29;20067;-73
2022/04/29 06:22:56;;;;;;;4.20;2.63;;;;;;;19.91;46.82;102056.56;4938861;29;20159;-73
2022/04/29 06:25:29;;;;;;;3.08;2.45;;;;;;;19.92;46.93;102054.72;4922302;29;20129;-73
2022/04/29 06:27:56;;;;;;;5.18;2.60;;;;;;;19.92;47.00;102057.41;4921333;29;20531;-73
2022/04/29 06:30:24;;;;;;;3.58;2.85;;;;;;;19.92;46.93;102062.78;4921406;29;20059;-73
2022/04/29 06:33:38;;;;;;;4.38;2.50;;;;;;;19.91;47.04;102061.94;4936965;29;20444;-72
2022/04/29 06:36:09;;;;;;;5.97;3.03;;;;;;;19.92;46.93;102057.41;4921114;29;20058;-73
2022/04/29 06:38:39;;;;;;;5.05;2.80;;;;;;;19.92;47.09;102052.03;4936871;29;20278;-73
2022/04/29 06:41:25;;;;;;;3.70;2.65;;;;;;;19.92;47.14;102049.34;4941056;29;20066;-73
2022/04/29 06:43:59;;;;;;;3.13;2.42;;;;;;;19.92;47.09;102054.72;4921352;29;20166;-73
2022/04/29 06:46:50;;;;;;;4.38;3.03;;;;;;;19.92;47.21;102046.66;4937236;29;20063;-72
2022/04/29 06:49:36;;;;;;;5.18;2.45;;;;;;;19.92;47.36;102047.53;4936891;29;20063;-73
2022/04/29 06:52:22;;;;;;;3.92;2.42;;;;;;;19.94;47.42;102044.75;4939059;29;20444;-72
2022/04/29 06:55:14;;;;;;;3.97;2.20;;;;;;;19.93;47.57;102048.38;4962244;28;20066;-72
2022/04/29 06:57:42;;;;;;;3.92;2.65;;;;;;;19.94;47.69;102052.81;4994262;28;20054;-72
2022/04/29 07:00:10;;;;;;;3.30;2.50;;;;;;;19.94;47.35;102052.81;4994758;28;20050;-73
2022/04/29 07:02:37;;;;;;;5.32;2.85;;;;;;;19.93;47.38;102051.94;4994325;28;20097;-72
2022/04/29 07:05:06;;;;;;;4.40;2.40;;;;;;;19.95;47.66;102055.38;4958656;28;20054;-71
2022/04/29 07:07:33;;;;;;;3.88;3.22;;;;;;;19.96;47.46;102048.16;4974782;28;20154;-71
2022/04/29 07:10:34;;;;;;;3.50;2.83;;;;;;;19.98;47.49;102040.88;4936652;29;20047;-71
2022/04/29 07:13:28;;;;;;;4.45;2.72;;;;;;;20.00;47.58;102044.31;4936529;29;20053;-71
2022/04/29 07:15:56;;;;;;;4.30;2.38;;;;;;;20.01;47.29;102048.72;4935011;29;20051;-71
2022/04/29 07:18:44;;;;;;;3.67;2.80;;;;;;;20.02;47.35;102047.75;4917821;29;20060;-72
2022/04/29 07:21:14;;;;;;;4.10;2.65;;;;;;;20.03;47.41;102043.25;4902299;29;20052;-71
2022/04/29 07:23:41;;;;;;;5.72;2.60;;;;;;;20.09;49.02;102048.19;4909980;29;20052;-72
2022/04/29 07:26:11;;;;;;;5.28;2.60;;;;;;;20.11;49.32;102041.72;4921360;29;20047;-71
2022/04/29 07:28:38;;;;;;;6.53;2.80;;;;;;;20.13;48.58;102050.53;4921048;29;20055;-71
2022/04/29 07:31:06;;;;;;;5.55;2.63;;;;;;;20.16;48.59;102046.78;4917022;29;20075;-72
2022/04/29 07:33:59;;;;;;;5.30;2.72;;;;;;;20.17;48.56;102054.72;4916808;29;20100;-73
2022/04/29 07:42:24;;;;;;;3.78;2.47;;;;;;;20.23;48.46;102057.00;4917194;29;20052;-72
2022/04/29 07:44:51;;;;;;;4.25;2.70;;;;;;;20.24;48.38;102058.72;4916803;29;20402;-73
2022/04/29 07:47:31;;;;;;;5.20;3.10;;;;;;;20.26;48.32;102050.56;4860183;29;20045;-72
2022/04/29 07:50:08;;;;;;;6.40;2.80;;;;;;;20.28;48.20;102059.38;4886771;29;20055;-72
2022/04/29 07:52:36;;;;;;;3.83;2.80;;;;;;;20.28;48.43;102059.38;4919602;29;20066;-72
2022/04/29 07:55:04;;;;;;;11.32;3.10;;;;;;;20.31;48.95;102063.69;4923909;28;20063;-74
2022/04/29 07:57:31;;;;;;;4.05;2.42;;;;;;;20.31;48.64;102058.31;4974786;28;20499;-75
2022/04/29 08:00:06;;;;;;;4.03;2.78;;;;;;;20.34;48.66;102064.31;4975106;28;20055;-71
2022/04/29 08:02:45;;;;;;;5.13;2.97;;;;;;;20.35;48.21;102059.81;4982893;28;20125;-73
2022/04/29 08:05:20;;;;;;;5.43;2.97;;;;;;;20.36;48.28;102064.22;4990672;28;20418;-72
2022/04/29 08:07:47;;;;;;;3.20;2.83;;;;;;;20.35;48.23;102059.81;4994348;28;20058;-73
2022/04/29 08:10:17;;;;;;;6.68;3.20;;;;;;;20.37;48.32;102058.72;4994478;28;20370;-72
2022/04/29 08:12:44;;;;;;;4.30;2.83;;;;;;;20.38;48.38;102064.97;4995082;28;20409;-73
2022/04/29 08:15:31;;;;;;;5.68;3.10;;;;;;;20.38;47.90;102065.84;5001567;28;20057;-72
2022/04/29 08:18:12;;;;;;;5.28;2.85;;;;;;;20.40;48.29;102063.03;4994262;28;20051;-73
2022/04/29 08:20:40;;;;;;;4.03;2.90;;;;;;;20.40;48.19;102065.72;4972557;28;20069;-73
2022/04/29 08:23:08;;;;;;;3.45;2.35;;;;;;;20.43;47.85;102065.50;4990709;28;20051;-72
2022/04/29 08:25:36;;;;;;;6.40;2.70;;;;;;;20.43;47.68;102062.81;4974113;28;20050;-72
2022/04/29 08:28:04;;;;;;;3.80;2.70;;;;;;;20.42;47.72;102061.94;4974205;28;20057;-72
2022/04/29 08:30:33;;;;;;;4.50;3.13;;;;;;;20.43;47.65;102055.59;4974284;28;20047;-74
2022/04/29 08:33:01;;;;;;;3.80;2.83;;;;;;;20.43;47.43;102052.06;4975556;28;20058;-72
2022/04/29 08:35:39;;;;;;;4.15;2.90;;;;;;;20.43;47.72;102063.66;5005649;28;20058;-72
2022/04/29 08:38:11;;;;;;;6.80;2.35;;;;;;;20.43;47.52;102050.22;4992989;28;20101;-70
2022/04/29 08:40:46;;;;;;;6.35;2.83;;;;;;;20.43;47.57;102052.91;4992899;28;20054;-72
2022/04/29 08:43:17;;;;;;;4.18;3.10;;;;;;;20.43;47.34;102042.16;4993142;28;20046;-71
2022/04/29 08:45:51;;;;;;;5.03;3.22;;;;;;;20.45;47.45;102047.41;4993262;28;20065;-72
2022/04/29 08:48:37;;;;;;;5.90;2.88;;;;;;;20.46;47.02;102049.16;5001179;28;20057;-72
2022/04/29 08:51:10;;;;;;;4.88;3.78;;;;;;;20.46;46.31;102057.22;4994157;28;20050;-71
2022/04/29 08:53:38;;;;;;;5.03;3.47;;;;;;;20.46;46.47;102059.91;4994938;28;20050;-71
2022/04/29 08:58:53;;;;;;;5.72;3.75;;;;;;;20.44;45.18;102054.63;4994438;28;20050;-70
2022/04/29 09:01:21;;;;;;;3.47;3.08;;;;;;;20.44;45.50;102056.44;4994525;28;20049;-71
2022/04/29 09:03:48;;;;;;;5.50;3.90;;;;;;;20.42;45.88;102045.81;4994144;28;20410;-72
2022/04/29 09:06:17;;;;;;;5.47;3.42;;;;;;;20.44;46.32;102043.84;4994038;28;20050;-71
2022/04/29 09:08:48;;;;;;;3.85;2.90;;;;;;;20.45;46.78;102042.88;4994472;28;20043;-72
2022/04/29 09:11:24;;;;;;;3.67;3.13;;;;;;;20.46;46.70;102047.31;4994136;28;20071;-72
2022/04/29 09:13:53;;;;;;;4.30;3.15;;;;;;;20.49;47.05;102046.25;4994443;28;20073;-71
2022/04/29 09:16:26;;;;;;;6.10;3.30;;;;;;;20.50;46.60;102037.22;4994008;28;20061;-70
2022/04/29 09:18:55;;;;;;;4.78;3.22;;;;;;;20.51;46.60;102030.88;4993728;28;20046;-71
2022/04/29 09:21:28;;;;;;;6.95;3.40;;;;;;;20.51;46.56;102038.94;4993621;28;20042;-71
2022/04/29 09:23:59;;;;;;;5.63;3.45;;;;;;;20.51;46.40;102038.94;4993940;28;20070;-71
2022/04/29 09:26:59;;;;;;;5.07;3.22;;;;;;;20.52;46.42;102035.28;4994631;28;20050;-71
2022/04/29 09:29:29;;;;;;;4.30;3.25;;;;;;;20.52;45.77;102024.50;5000103;28;20046;-71
2022/04/29 09:32:01;;;;;;;4.18;2.92;;;;;;;20.54;46.00;102024.38;5000465;28;20051;-71
2022/04/29 09:34:53;;;;;;;4.80;3.50;;;;;;;20.55;45.55;102018.06;4999396;28;20076;-71
2022/04/29 09:37:24;;;;;;;7.13;3.63;;;;;;;20.54;45.58;102014.53;4994051;28;20046;-71
2022/04/29 09:40:05;;;;;;;4.72;3.05;;;;;;;20.55;45.65;102015.38;4992357;28;20058;-71
2022/04/29 09:42:40;;;;;;;4.30;3.45;;;;;;;20.54;45.77;102011.81;4994013;28;20065;-71
2022/04/29 09:45:17;;;;;;;5.88;3.75;;;;;;;20.55;45.69;102010.00;4992350;28;20046;-71
2022/04/29 09:47:44;;;;;;;4.10;3.50;;;;;;;20.54;45.65;102001.06;4993850;28;20050;-71
2022/04/29 09:50:12;;;;;;;5.30;4.55;;;;;;;20.54;45.48;101993.00;4993593;28;20047;-72
2022/04/29 09:52:43;;;;;;;5.32;4.00;;;;;;;20.55;44.98;101999.22;4992678;28;20049;-70
2022/04/29 09:55:18;;;;;;;5.55;3.35;;;;;;;20.54;45.08;101990.31;4994163;28;20470;-71
2022/04/29 09:57:52;;;;;;;6.13;3.80;;;;;;;20.54;45.11;101993.00;4994036;28;20050;-71
2022/04/29 10:00:19;;;;;;;4.07;3.40;;;;;;;20.55;45.01;101992.03;4993992;28;20051;-71
2022/04/29 10:02:48;;;;;;;4.03;3.08;;;;;;;20.54;45.04;101976.84;4976528;28;20050;-71
2022/04/29 10:05:19;;;;;;;6.22;3.60;;;;;;;20.55;44.85;101981.25;4992448;28;20410;-71
2022/04/29 10:08:00;;;;;;;5.22;3.05;;;;;;;20.56;44.46;101982.09;4992300;28;20053;-71
2022/04/29 10:10:30;;;;;;;6.72;3.92;;;;;;;20.58;42.14;101966.69;4993169;28;20051;-71
2022/04/29 10:13:01;;;;;;;5.60;3.45;;;;;;;20.59;44.36;101966.59;4991835;28;20054;-72
2022/04/29 10:15:59;;;;;;;5.20;2.92;;;;;;;20.59;43.76;101957.69;4994355;28;20061;-72
2022/04/29 10:22:08;;;;;;;4.80;3.13;;;;;;;20.58;43.51;101938.00;5009990;28;20057;-72
2022/04/29 10:24:42;;;;;;;6.32;3.65;;;;;;;20.58;43.59;101938.00;5010703;28;20054;-72
2022/04/29 10:27:11;;;;;;;5.05;3.13;;;;;;;20.58;43.50;101943.38;5010752;28;20054;-73
2022/04/29 10:29:40;;;;;;;5.55;3.25;;;;;;;20.57;43.20;101936.25;5010794;28;20062;-73
2022/04/29 10:32:09;;;;;;;4.13;3.65;;;;;;;20.57;43.20;101930.88;4993633;28;20049;-71
2022/04/29 10:34:37;;;;;;;5.30;3.40;;;;;;;20.57;43.34;101922.78;5010382;28;20524;-73
2022/04/29 10:37:15;;;;;;;6.43;3.22;;;;;;;20.56;43.65;101923.78;4993840;28;20053;-73
2022/04/29 10:40:06;;;;;;;5.45;3.63;;;;;;;20.57;42.58;101922.78;5010785;28;20076;-75
2022/04/29 10:43:09;;;;;;;3.35;2.97;;;;;;;20.58;43.16;101923.66;4995624;28;20057;-72
2022/04/29 10:46:05;;;;;;;4.97;3.13;;;;;;;20.58;42.84;101916.47;5010870;28;20056;-73
2022/04/29 10:48:45;;;;;;;4.03;3.13;;;;;;;20.58;43.28;101913.78;4993974;28;20058;-71
2022/04/29 10:51:30;;;;;;;7.85;3.25;;;;;;;20.58;42.92;101915.59;5021588;28;20056;-72
2022/04/29 10:54:14;;;;;;;5.07;3.10;;;;;;;20.57;39.52;101917.41;5014785;28;20053;-72
2022/04/29 10:57:04;;;;;;;4.97;3.05;;;;;;;20.60;41.71;101910.97;4996441;28;20514;-71
2022/04/29 10:59:57;;;;;;;3.55;2.55;;;;;;;20.60;38.29;101908.28;4995180;28;20398;-72
2022/04/29 11:02:29;;;;;;;4.35;2.80;;;;;;;20.60;41.92;101903.75;4996537;28;20055;-73
2022/04/29 11:04:59;;;;;;;3.20;2.50;;;;;;;20.60;41.83;101897.50;4996877;28;20050;-72
2022/04/29 11:07:44;;;;;;;4.30;2.75;;;;;;;20.60;41.76;101897.50;4996260;28;20283;-72
2022/04/29 11:10:13;;;;;;;5.75;2.78;;;;;;;20.60;42.10;101892.97;4995280;28;20050;-71
2022/04/29 11:12:56;;;;;;;;;;;;;;;20.61;42.14;101891.16;4995560;28;20050;-70
2022/04/29 11:15:44;;;;;;;3.30;2.63;;;;;;;20.60;42.25;101886.75;5002921;28;19922;-70
2022/04/29 11:19:17;;;;;;;4.80;2.53;;;;;;;20.60;42.30;101882.22;5014347;28;20061;-71
2022/04/29 11:24:46;;;;;;;4.13;2.58;;;;;;;20.60;42.31;101873.28;5014168;28;20077;-72
2022/04/29 11:27:36;;;;;;;4.95;2.88;;;;;;;20.60;39.78;101881.38;5013748;28;20062;-71
2022/04/29 11:30:10;;;;;;;10.65;3.20;;;;;;;20.60;42.12;101874.16;5013740;28;20046;-71
2022/04/29 11:32:44;;;;;;;4.22;2.88;;;;;;;20.61;41.17;101866.94;5013328;28;20064;-71
2022/04/29 11:35:12;;;;;;;5.43;2.90;;;;;;;20.61;40.79;101866.94;5013739;28;20058;-71
2022/04/29 11:37:39;;;;;;;4.35;2.90;;;;;;;20.60;41.17;101866.06;5013766;28;20101;-71
2022/04/29 11:40:09;;;;;;;4.25;2.33;;;;;;;20.61;41.03;101867.78;5013180;28;20050;-71
2022/04/29 11:42:37;;;;;;;7.40;2.60;;;;;;;20.59;41.19;101863.53;5013161;28;20057;-71
2022/04/29 11:45:05;;;;;;;3.72;2.40;;;;;;;20.60;40.15;101860.69;5013268;28;20056;-71
2022/04/29 11:47:33;;;;;;;5.47;3.55;;;;;;;20.61;39.65;101861.56;5013475;28;20057;-71
2022/04/29 11:50:04;;;;;;;3.53;2.30;;;;;;;20.60;37.60;101849.94;5002633;28;20065;-71
2022/04/29 11:52:33;;;;;;;3.70;2.50;;;;;;;20.60;38.31;101847.25;4995171;28;20042;-71
2022/04/29 11:55:04;;;;;;;3.83;2.45;;;;;;;20.62;40.05;101844.44;4995232;28;20054;-72
2022/04/29 11:57:33;;;;;;;5.10;2.75;;;;;;;20.62;40.73;101845.31;4995277;28;20050;-72
2022/04/29 12:00:03;;;;;;;6.50;2.65;;;;;;;20.64;42.16;101839.81;4995375;28;20050;-72
2022/04/29 12:02:46;;;;;;;4.05;2.33;;;;;;;20.65;44.56;101842.38;5001641;28;20061;-73
2022/04/29 12:05:15;;;;;;;3.85;2.88;;;;;;;20.65;44.96;101833.44;4994363;28;20525;-71
2022/04/29 12:07:46;;;;;;;4.65;2.53;;;;;;;20.64;44.66;101837.97;4981681;28;20054;-72
2022/04/29 12:10:31;;;;;;;3.92;2.28;;;;;;;20.64;44.38;101837.13;4976309;28;20057;-73
2022/04/29 12:13:01;;;;;;;5.15;2.15;;;;;;;20.65;44.19;101842.38;4976174;28;20070;-73
2022/04/29 12:15:39;;;;;;;5.78;2.58;;;;;;;20.64;44.06;101846.03;4974809;28;20051;-72
2022/04/29 12:18:11;;;;;;;5.85;2.60;;;;;;;20.65;43.87;101838.81;4974872;28;20395;-72
2022/04/29 12:20:58;;;;;;;5.97;2.45;;;;;;;20.65;43.88;101838.81;4974694;28;20047;-72
2022/04/29 12:23:32;;;;;;;4.03;2.50;;;;;;;20.65;43.91;101831.59;4974264;28;20059;-72